Palmer Township, Pennsylvania
Current Conditions -  °F | °C
As of 6:59 AM on Monday 26 Jan 2015 (Local Time) from KABE Reporting Station
Light Snow Light Snow  
Wind Chill:   Ceiling: 2800
Heat Index: 19°   Visibility: 5mi
Dew Point: 14°   Wind: 16mph
Humidity: 80%   Direction: 60°ENE
Pressure: 29.94"   Gusts: NA
Location:  40.6892°N, 75.2775°W
Report Text: KABE 261159Z 06014KT 5SM -SN BKN028 OVC046 M07/M10 A2994 RMK AO2 P0000
Loading
Personal Weather Stations






























Interactive Weather Map New forecast layout! Learn more

10-Day Weather Forecast

Advertisements
Track Severe Weather on mobile